Nearby METAR Reports

 

KEWB - New Bedford, Massachusetts, USA
Distance from station: ESE 9mi, 15km
Updated: Wed, 30-Nov-2022 10:53pm EST
Mostly cloudy
Mostly cloudy
 Wind from WNW
Wind: WNW 9 mph , 15 km/h
Temperature: 48°F , 9°C
Wind Chill: 44°F , 7°C
Dew Point: 45°F , 7°C
Humidity: 87%
Barometer: 29.67 inHg , 1004.7 hPa
Clouds: Mostly cloudy
Visibility: 10 miles , 16 km
Cloud details: Partly cloudy 9000 ft
Mostly cloudy 11000 ft
2022/12/01 03:53 KEWB 010353Z AUTO 29008KT 10SM SCT090 BKN110 09/07 A2967 RMK AO2 RAE03 SLP046 P0000 T00890067
KTAN - Taunton, Massachusetts, USA
Distance from station: NNE 11mi, 18km
Updated: Wed, 30-Nov-2022 10:52pm EST

 
Barometer: 29.68 inHg , 1005.1 hPa
2022/12/01 03:52 KTAN 010352Z AUTO A2968 RMK AO2 SLPNO PWINO FZRANO TSNO $
 
KPVD - Providence/Green, Rhode Island, USA
Distance from station: W 16mi, 26km
Updated: Wed, 30-Nov-2022 10:51pm EST
Mostly cloudy
Mostly cloudy
 Wind from WNW
Wind: WNW 15 mph , 24 km/h
Temperature: 46°F , 8°C
Wind Chill: 40°F , 4°C
Dew Point: 36°F , 2°C
Humidity: 66%
Barometer: 29.70 inHg , 1005.8 hPa
Clouds: Mostly cloudy
Visibility: 3 miles , 5 km
Cloud details: Few Clouds 2200 ft
Few Clouds 5000 ft
Mostly cloudy 10000 ft
2022/12/01 03:51 KPVD 010351Z 30013KT 3SM FEW022 FEW050 BKN100 08/02 A2970 RMK AO2 SFC VIS 10 SLP058 T00830022 $
KUUU - Newport, Rhode Island, USA
Distance from station: SSW 16mi, 27km
Updated: Wed, 30-Nov-2022 10:53pm EST
Overcast
Overcast
 Wind from NW
Wind: NW 14 mph , 22 km/h, Gust: 23 mph , 37 km/h
Temperature: 46°F , 8°C
Wind Chill: 40°F , 4°C
Dew Point: 39°F , 4°C
Humidity: 76%
Barometer: 29.69 inHg , 1005.4 hPa
Clouds: Overcast
Visibility: 10 miles , 16 km
Cloud details: Partly cloudy 9000 ft
Overcast 11000 ft
2022/12/01 03:53 KUUU 010353Z AUTO 32012G20KT 10SM SCT090 OVC110 08/04 A2969 RMK AO2 SLP051 T00830039
 
KOQU - N. Kingston/Quon, Rhode Island, USA
Distance from station: WSW 18mi, 29km
Updated: Wed, 30-Nov-2022 10:50pm EST
Overcast
Overcast
 Wind from NW
Wind: NW 23 mph , 37 km/h
Temperature: 50°F , 10°C
Wind Chill: 43°F , 6°C
Dew Point: 37°F , 3°C
Humidity: 62%
Barometer: 29.71 inHg , 1006.1 hPa
Clouds: Overcast
Visibility: 6 miles , 10 km
Cloud details: Few Clouds 2000 ft
Partly cloudy 5000 ft
Overcast 9000 ft
2022/12/01 03:50 KOQU 010350Z 31020KT 6SM FEW020 SCT050 OVC090 10/03 A2971 RMK LAST
KPYM - Plymouth, Massachusetts, USA
Distance from station: ENE 23mi, 37km
Updated: Wed, 30-Nov-2022 10:52pm EST
Mostly cloudy
Mostly cloudy
 Wind from WNW
Wind: WNW 17 mph , 28 km/h, Gust: 24 mph , 39 km/h
Temperature: 46°F , 8°C
Wind Chill: 39°F , 4°C
Dew Point: 39°F , 4°C
Humidity: 76%
Barometer: 29.66 inHg , 1004.4 hPa
Clouds: Mostly cloudy
Visibility: 10 miles , 16 km
Cloud details: Mostly cloudy 8500 ft
2022/12/01 03:52 KPYM 010352Z AUTO 29015G21KT 10SM BKN085 08/04 A2966 RMK AO2 RAB0256E16 SLP046 P0000 T00830044
 
KSFZ - Pawtucket, Rhode Island, USA
Distance from station: WNW 23mi, 38km
Updated: Wed, 30-Nov-2022 10:56pm EST
Overcast
Overcast
 Wind from WNW
Wind: WNW 15 mph , 24 km/h, Gust: 26 mph , 43 km/h
Temperature: 45°F , 7°C
Wind Chill: 38°F , 3°C
Dew Point: 36°F , 2°C
Humidity: 71%
Barometer: 29.70 inHg , 1005.8 hPa
Clouds: Overcast
Visibility: 10 miles , 16 km
Cloud details: Partly cloudy 3000 ft
Mostly cloudy 3600 ft
Overcast 10000 ft
2022/12/01 03:56 KSFZ 010356Z AUTO 29013G23KT 10SM SCT030 BKN036 OVC100 07/02 A2970 RMK AO2 PRESRR SLP060 T00670022
KOWD - Norwood, Massachusetts, USA
Distance from station: N 31mi, 50km
Updated: Wed, 30-Nov-2022 10:53pm EST
Partly cloudy
Partly cloudy
 Wind from WNW
Wind: WNW 21 mph , 33 km/h, Gust: 30 mph , 48 km/h
Temperature: 46°F , 8°C
Wind Chill: 38°F , 3°C
Dew Point: 32°F , 0°C
Humidity: 57%
Barometer: 29.68 inHg , 1005.1 hPa
Clouds: Partly cloudy
Visibility: 10 miles , 16 km
Cloud details: Partly cloudy 11000 ft
2022/12/01 03:53 KOWD 010353Z AUTO 30018G26KT 10SM SCT110 08/00 A2968 RMK AO2 PK WND 29031/0259 SLP051 T00780000
 
KFMH - Falmouth/Otis Ab, Massachusetts, USA
Distance from station: ESE 32mi, 51km
Updated: Wed, 30-Nov-2022 9:45pm EST
Light drizzle, Mostly cloudy
Light drizzle, Mostly cloudy
 Wind from W
Wind: W 14 mph , 22 km/h, Gust: 23 mph , 37 km/h
Temperature: 50°F , 10°C
Wind Chill: 45°F , 7°C
Dew Point: 48°F , 9°C
Humidity: 94%
Barometer: 29.64 inHg , 1003.7 hPa
Summary: Light Drizzle
Clouds: Mostly cloudy
Visibility: 5 miles , 8 km
Cloud details: Few Clouds 3300 ft
Mostly cloudy 3900 ft
2022/12/01 02:45 KFMH 010245Z 27012G20KT 5SM -DZ FEW033 BKN039 10/09 A2964
KMQE - East Milton, Massachusetts, USA
Distance from station: N 33mi, 53km
Updated: Thu, 01-Jul-2021 9:51am EDT
NOT Current

 Wind from WNW
Wind: WNW 9 mph , 15 km/h
Temperature: 75°F , 24°C
Dew Point: 70°F , 21°C
Humidity: 83%
Barometer: 29.86 inHg , 1011.2 hPa
2021/07/01 13:51 KMQE 011351Z AUTO 30008KT 24/21 A2986 RMK AO1 SLP116 T02440206
 
KGHG - Marshfield, Massachusetts, USA
Distance from station: NE 34mi, 55km
Updated: Wed, 30-Nov-2022 10:35pm EST

 Wind from W
Wind: W 13 mph , 20 km/h, Gust: 23 mph , 37 km/h
Temperature: 46°F , 8°C
Wind Chill: 40°F , 4°C
Dew Point: 39°F , 4°C
Humidity: 76%
Barometer: 29.64 inHg , 1003.7 hPa
Visibility: 10 miles , 16 km
2022/12/01 03:35 KGHG 010335Z AUTO 28011G20KT 240V300 10SM 08/04 A2964 RMK AO2
KMVY - Marthas Vineyard, Massachusetts, USA
Distance from station: SE 35mi, 56km
Updated: Wed, 30-Nov-2022 10:53pm EST
Overcast
Overcast
 Wind from WNW
Wind: WNW 15 mph , 24 km/h, Gust: 24 mph , 39 km/h
Temperature: 52°F , 11°C
Dew Point: 43°F , 6°C
Humidity: 72%
Barometer: 29.67 inHg , 1004.7 hPa
Clouds: Overcast
Visibility: 10 miles , 16 km
Cloud details: Partly cloudy 2600 ft
Overcast 8000 ft
2022/12/01 03:53 KMVY 010353Z AUTO 30013G21KT 10SM SCT026 OVC080 11/06 A2967 RMK AO2 RAE44 SLP046 P0001 T01060061
 
KBOS - Boston, Massachusetts, USA
Distance from station: N 44mi, 71km
Updated: Wed, 30-Nov-2022 10:54pm EST
Mostly cloudy
Mostly cloudy
 Wind from W
Wind: W 20 mph , 31 km/h, Gust: 28 mph , 44 km/h
Temperature: 45°F , 7°C
Wind Chill: 37°F , 3°C
Dew Point: 34°F , 1°C
Humidity: 66%
Barometer: 29.67 inHg , 1004.7 hPa
Clouds: Mostly cloudy
Visibility: 10 miles , 16 km
Cloud details: Few Clouds 3400 ft
Few Clouds 9000 ft
Mostly cloudy 12000 ft
2022/12/01 03:54 KBOS 010354Z 28017G24KT 10SM FEW034 FEW090 BKN120 07/01 A2967 RMK AO2 PK WND 28031/0308 SLP046 T00720006 $
KHYA - Hyannis, Massachusetts, USA
Distance from station: E 44mi, 71km
Updated: Wed, 30-Nov-2022 10:54pm EST
Light rain, Overcast
Light rain, Overcast
 Wind from WNW
Wind: WNW 13 mph , 20 km/h, Gust: 24 mph , 39 km/h
Temperature: 48°F , 9°C
Wind Chill: 43°F , 6°C
Dew Point: 45°F , 7°C
Humidity: 87%
Barometer: 29.63 inHg , 1003.4 hPa
Summary: Light rain
Clouds: Overcast
Visibility: 10 miles , 16 km
Cloud details: Few Clouds 1400 ft
Mostly cloudy 2400 ft
Overcast 7500 ft
2022/12/01 03:54 KHYA 010354Z AUTO 30011G21KT 10SM -RA FEW014 BKN024 OVC075 09/07 A2963 RMK AO2 P0002
 
KWST - Westerly, Rhode Island, USA
Distance from station: SW 44mi, 71km
Updated: Wed, 30-Nov-2022 10:53pm EST
Overcast
Overcast
 Wind from NW
Wind: NW 9 mph , 15 km/h, Gust: 20 mph , 31 km/h
Temperature: 48°F , 9°C
Wind Chill: 44°F , 7°C
Dew Point: 39°F , 4°C
Humidity: 71%
Barometer: 29.72 inHg , 1006.4 hPa
Clouds: Overcast
Visibility: 10 miles , 16 km
Cloud details: Overcast 3200 ft
2022/12/01 03:53 KWST 010353Z AUTO 32008G17KT 10SM OVC032 09/04 A2972 RMK AO2 SLP062 T00940039
KBID - Block Island, Rhode Island, USA
Distance from station: SSW 46mi, 74km
Updated: Wed, 30-Nov-2022 10:56pm EST
Overcast
Overcast
 Wind from W
Wind: W 22 mph , 35 km/h, Gust: 33 mph , 54 km/h
Temperature: 48°F , 9°C
Wind Chill: 41°F , 5°C
Dew Point: 37°F , 3°C
Humidity: 66%
Barometer: 29.72 inHg , 1006.4 hPa
Clouds: Overcast
Visibility: 10 miles , 16 km
Cloud details: Partly cloudy 3600 ft
Mostly cloudy 8000 ft
Overcast 10000 ft
2022/12/01 03:56 KBID 010356Z AUTO 28019G29KT 10SM SCT036 BKN080 OVC100 09/03 A2972 RMK AO2 PK WND 28029/0355 SLP063 T00940028 401440044